Time;durP1;ratioP1;P1;durP2;ratioP2;P2;SDS_P1;SDS_P2;PMS_P1;PMS_P2;Temp;Humidity;BMP_temperature;BMP_pressure;BME280_temperature;BME280_humidity;BME280_pressure;Samples;Min_cycle;Max_cycle;Signal;HPM_P1;HPM_P2
2022/01/23 00:00:28;;;;;;;17.50;6.65;;;;;;;4.16;100.00;103418.41;1043727;28;20307;-78
2022/01/23 00:01:09;;;;;;;11.35;6.28;;;;;;;4.16;100.00;103423.69;1044074;28;20303;-79
2022/01/23 00:01:50;;;;;;;9.75;6.70;;;;;;;4.17;100.00;103423.59;1043726;28;20339;-79
2022/01/23 00:02:27;;;;;;;7.03;6.32;;;;;;;4.19;100.00;103423.47;1043198;28;20502;-78
2022/01/23 00:03:05;;;;;;;12.35;6.43;;;;;;;4.18;100.00;103421.78;1043691;28;20303;-78
2022/01/23 00:03:43;;;;;;;10.15;6.30;;;;;;;4.19;100.00;103423.47;1043777;28;20381;-78
2022/01/23 00:04:16;;;;;;;12.73;6.47;;;;;;;4.16;100.00;103423.69;1043521;28;20303;-78
2022/01/23 00:04:47;;;;;;;7.55;6.75;;;;;;;4.13;100.00;103419.47;1043779;28;20728;-78
2022/01/23 00:05:21;;;;;;;7.35;6.35;;;;;;;4.12;100.00;103422.22;1041931;28;20315;-78
2022/01/23 00:05:53;;;;;;;10.82;7.25;;;;;;;4.11;100.00;103420.50;1043622;28;20303;-78
2022/01/23 00:06:24;;;;;;;11.90;7.03;;;;;;;4.07;100.00;103419.91;1043903;28;20303;-78
2022/01/23 00:06:56;;;;;;;12.57;6.97;;;;;;;4.09;100.00;103411.88;1042826;28;20314;-78
2022/01/23 00:07:29;;;;;;;8.40;6.35;;;;;;;4.04;100.00;103413.06;1039546;28;20306;-78
2022/01/23 00:08:02;;;;;;;9.43;6.93;;;;;;;4.06;100.00;103415.56;1039625;28;20310;-78
2022/01/23 00:08:33;;;;;;;10.07;7.40;;;;;;;3.98;100.00;103416.13;1040750;28;20326;-78
2022/01/23 00:09:05;;;;;;;8.45;6.60;;;;;;;3.96;100.00;103418.03;1042745;28;20352;-78
2022/01/23 00:09:37;;;;;;;10.48;7.22;;;;;;;3.91;100.00;103420.16;1043147;28;20314;-78
2022/01/23 00:10:10;;;;;;;11.15;6.97;;;;;;;3.91;100.00;103414.91;1039256;28;20395;-78
2022/01/23 00:10:42;;;;;;;10.48;7.95;;;;;;;3.91;100.00;103414.06;1035096;28;20715;-78
2022/01/23 00:11:13;;;;;;;10.73;8.00;;;;;;;3.88;100.00;103419.53;1031508;28;20312;-78
2022/01/23 00:11:52;;;;;;;11.38;7.05;;;;;;;3.86;100.00;103411.75;1032076;28;20347;-78
2022/01/23 00:12:26;;;;;;;10.65;7.70;;;;;;;3.84;100.00;103424.19;1036891;28;20376;-78
2022/01/23 00:13:11;;;;;;;14.25;8.57;;;;;;;3.78;100.00;103419.34;1039517;28;20311;-78
2022/01/23 00:17:17;;;;;;;8.32;6.93;;;;;;;3.78;100.00;103414.06;1039935;28;20343;-78
2022/01/23 00:17:18;;;;;;;7.68;5.65;;;;;;;3.64;100.00;103424.75;1039893;28;20311;-78
2022/01/23 00:17:49;;;;;;;7.80;5.28;;;;;;;3.59;100.00;103425.06;1040046;28;20311;-77
2022/01/23 00:18:21;;;;;;;7.05;6.35;;;;;;;3.53;100.00;103427.28;1043465;28;20308;-78
2022/01/23 00:18:52;;;;;;;8.18;6.55;;;;;;;3.50;100.00;103425.69;1039716;28;20644;-77
2022/01/23 00:19:24;;;;;;;7.20;5.95;;;;;;;3.46;100.00;103421.59;1039726;28;20312;-78
2022/01/23 00:19:57;;;;;;;8.35;6.43;;;;;;;3.48;100.00;103424.13;1039327;28;20315;-77
2022/01/23 00:20:29;;;;;;;10.90;5.72;;;;;;;3.40;100.00;103433.41;1039661;28;20319;-78
2022/01/23 00:21:00;;;;;;;8.68;6.07;;;;;;;3.35;100.00;103426.78;1040170;28;20678;-78
2022/01/23 00:21:34;;;;;;;7.00;5.40;;;;;;;3.32;100.00;103427.81;1039638;28;20311;-77
2022/01/23 00:22:08;;;;;;;5.85;5.13;;;;;;;3.26;100.00;103428.22;1035006;28;20308;-78
2022/01/23 00:22:47;;;;;;;13.23;6.75;;;;;;;3.25;100.00;103426.53;1035485;28;20798;-78
2022/01/23 00:30:31;;;;;;;14.90;5.65;;;;;;;3.31;100.00;103441.94;1039609;28;20075;-79
2022/01/23 00:31:02;;;;;;;5.38;4.88;;;;;;;3.37;100.00;103441.53;1039530;28;20648;-79
2022/01/23 00:31:35;;;;;;;8.77;5.57;;;;;;;3.39;100.00;103442.25;1039583;28;20315;-79
2022/01/23 00:32:07;;;;;;;10.60;5.60;;;;;;;3.39;100.00;103438.78;1043158;28;20317;-80
2022/01/23 00:32:39;;;;;;;8.35;5.72;;;;;;;3.41;100.00;103437.72;1041951;28;20304;-79
2022/01/23 00:33:12;;;;;;;6.55;5.50;;;;;;;3.48;100.00;103447.84;1039208;28;20867;-79
2022/01/23 00:33:43;;;;;;;8.35;6.13;;;;;;;3.51;100.00;103439.72;1036373;28;20794;-79
2022/01/23 00:34:14;;;;;;;6.32;5.72;;;;;;;3.51;100.00;103437.06;1039657;28;20394;-79
2022/01/23 00:34:46;;;;;;;9.05;6.10;;;;;;;3.50;100.00;103440.66;1038851;28;20304;-79
2022/01/23 00:35:17;;;;;;;6.93;5.80;;;;;;;3.49;100.00;103429.28;1040157;28;20308;-79
2022/01/23 00:35:49;;;;;;;9.07;5.38;;;;;;;3.49;100.00;103438.97;1043102;28;20314;-79
2022/01/23 00:36:22;;;;;;;8.55;6.07;;;;;;;3.44;100.00;103436.66;1039627;28;20354;-79
2022/01/23 00:36:53;;;;;;;9.75;6.00;;;;;;;3.35;100.00;103435.50;1039792;28;20318;-79
2022/01/23 00:37:25;;;;;;;5.32;4.88;;;;;;;3.30;100.00;103435.00;1039619;28;20307;-79
2022/01/23 00:37:57;;;;;;;7.30;4.97;;;;;;;3.38;100.00;103437.94;1035486;28;20308;-79
2022/01/23 00:38:29;;;;;;;9.15;6.25;;;;;;;3.37;100.00;103435.41;1031305;28;20317;-79
2022/01/23 00:39:00;;;;;;;6.35;5.57;;;;;;;3.30;100.00;103434.16;1032249;28;20309;-80
2022/01/23 00:39:32;;;;;;;6.57;5.85;;;;;;;3.22;100.00;103433.81;1032740;28;20320;-79
2022/01/23 00:40:05;;;;;;;7.00;5.90;;;;;;;3.25;100.00;103436.22;1036708;28;20308;-79
2022/01/23 00:40:38;;;;;;;9.65;7.30;;;;;;;3.23;100.00;103433.69;1036163;28;20304;-79
2022/01/23 00:41:10;;;;;;;8.40;6.00;;;;;;;3.25;100.00;103437.06;1033297;28;20313;-79
2022/01/23 00:41:42;;;;;;;22.73;7.75;;;;;;;3.28;100.00;103430.75;1035970;28;20308;-79
2022/01/23 00:42:13;;;;;;;8.35;5.72;;;;;;;3.30;100.00;103434.16;1036878;28;20315;-79
2022/01/23 00:42:45;;;;;;;7.57;6.75;;;;;;;3.31;100.00;103441.94;1040316;28;20312;-79
2022/01/23 00:43:28;;;;;;;8.82;6.85;;;;;;;3.31;100.00;103430.56;1040263;28;20315;-80
2022/01/23 00:44:01;;;;;;;5.70;5.10;;;;;;;3.33;100.00;103434.78;1036195;28;20311;-79
2022/01/23 00:44:35;;;;;;;6.57;5.63;;;;;;;3.37;100.00;103436.25;1036201;28;20319;-79
2022/01/23 00:45:26;;;;;;;9.25;6.25;;;;;;;3.35;100.00;103432.88;1038877;28;20312;-79
2022/01/23 00:46:18;;;;;;;7.32;5.88;;;;;;;3.39;100.00;103429.09;1044521;28;20311;-79
2022/01/23 00:46:51;;;;;;;7.60;5.65;;;;;;;3.38;100.00;103432.66;1044468;28;20052;-79
2022/01/23 00:47:22;;;;;;;5.75;4.97;;;;;;;3.42;100.00;103433.28;1044644;28;20335;-79
2022/01/23 00:47:59;;;;;;;7.32;5.18;;;;;;;3.46;100.00;103436.56;1044435;28;20307;-79
2022/01/23 00:48:35;;;;;;;6.45;5.40;;;;;;;3.47;100.00;103430.34;1040131;28;20345;-79
2022/01/23 00:49:38;;;;;;;6.72;5.03;;;;;;;3.50;100.00;103432.75;1040382;28;20318;-79
2022/01/23 00:50:09;;;;;;;6.03;5.40;;;;;;;3.49;100.00;103433.72;1041778;28;20308;-79
2022/01/23 00:50:44;;;;;;;10.27;5.68;;;;;;;3.48;100.00;103432.03;1044577;28;20745;-79
2022/01/23 00:51:15;;;;;;;5.50;5.03;;;;;;;3.47;100.00;103435.59;1039047;28;20304;-79
2022/01/23 00:51:47;;;;;;;6.43;5.10;;;;;;;3.48;100.00;103437.28;1037159;28;20304;-80
2022/01/23 00:52:19;;;;;;;7.30;4.63;;;;;;;3.38;100.00;103440.56;1039873;28;20330;-79
2022/01/23 00:52:51;;;;;;;11.35;5.85;;;;;;;3.25;100.00;103436.22;1040421;28;20634;-79
2022/01/23 00:53:22;;;;;;;9.77;5.00;;;;;;;3.32;100.00;103441.00;1043792;28;20317;-79
2022/01/23 00:53:55;;;;;;;9.18;5.78;;;;;;;3.28;100.00;103442.13;1044137;28;20317;-79
2022/01/23 00:54:26;;;;;;;8.07;5.55;;;;;;;3.32;100.00;103433.09;1040325;28;20311;-79
2022/01/23 00:55:00;;;;;;;12.02;6.18;;;;;;;3.30;100.00;103439.41;1040170;28;20379;-80
2022/01/23 00:55:31;;;;;;;7.07;5.50;;;;;;;3.35;100.00;103445.22;1041319;28;20303;-79
2022/01/23 00:56:03;;;;;;;7.90;5.78;;;;;;;3.35;100.00;103443.41;1045058;28;20310;-79
2022/01/23 00:56:35;;;;;;;6.55;5.45;;;;;;;3.44;100.00;103439.31;1048199;28;20667;-79
2022/01/23 00:57:07;;;;;;;9.13;6.55;;;;;;;3.44;100.00;103441.09;1048645;28;20680;-79
2022/01/23 00:57:38;;;;;;;9.20;6.13;;;;;;;3.44;100.00;103438.47;1047969;28;20688;-79
2022/01/23 00:58:10;;;;;;;9.65;6.07;;;;;;;3.48;100.00;103437.28;1044533;28;20666;-78
2022/01/23 00:58:42;;;;;;;7.13;6.22;;;;;;;3.51;100.00;103437.06;1040072;28;20315;-78
2022/01/23 00:59:14;;;;;;;7.63;5.80;;;;;;;3.55;100.00;103446.44;1040357;28;20308;-79
2022/01/23 00:59:45;;;;;;;6.28;5.53;;;;;;;3.57;100.00;103441.94;1036707;28;20319;-79
2022/01/23 01:00:17;;;;;;;6.43;5.88;;;;;;;3.58;100.00;103441.84;1040922;28;20316;-79
2022/01/23 01:00:49;;;;;;;6.88;5.53;;;;;;;3.57;100.00;103441.94;1044444;28;20313;-79
2022/01/23 01:01:21;;;;;;;5.32;4.80;;;;;;;3.59;100.00;103438.25;1042609;28;20353;-79
2022/01/23 01:01:53;;;;;;;8.48;5.18;;;;;;;3.57;100.00;103447.22;1044312;28;20303;-79
2022/01/23 01:02:25;;;;;;;12.60;5.57;;;;;;;3.55;100.00;103443.81;1039742;28;20312;-79
2022/01/23 01:02:58;;;;;;;7.30;5.45;;;;;;;3.54;100.00;103447.41;1032869;28;20335;-80
2022/01/23 01:03:30;;;;;;;8.13;5.70;;;;;;;3.57;100.00;103444.59;1031963;28;20810;-79
2022/01/23 01:04:01;;;;;;;10.07;5.70;;;;;;;3.59;100.00;103440.88;1032950;28;20305;-79
2022/01/23 01:04:33;;;;;;;8.40;6.60;;;;;;;3.63;100.00;103449.41;1037041;28;20315;-80
2022/01/23 01:05:05;;;;;;;9.98;5.95;;;;;;;3.64;100.00;103443.19;1036682;28;20316;-79
2022/01/23 01:05:39;;;;;;;5.53;4.75;;;;;;;3.65;100.00;103445.72;1036176;28;20679;-79
2022/01/23 01:06:11;;;;;;;8.77;5.95;;;;;;;3.66;100.00;103449.19;1035971;28;20319;-79
2022/01/23 01:06:44;;;;;;;7.63;6.53;;;;;;;3.71;100.00;103447.94;1033186;28;20316;-79
2022/01/23 01:07:15;;;;;;;6.45;5.70;;;;;;;3.73;100.00;103442.53;1033053;28;20309;-80
2022/01/23 01:07:46;;;;;;;7.32;6.60;;;;;;;3.68;100.00;103444.66;1031615;28;20960;-79
2022/01/23 01:08:18;;;;;;;7.03;6.30;;;;;;;3.68;100.00;103444.66;1032822;28;20397;-80
2022/01/23 01:08:51;;;;;;;10.13;6.80;;;;;;;3.66;100.00;103451.84;1036468;28;20313;-79
2022/01/23 01:09:25;;;;;;;9.60;5.82;;;;;;;3.59;100.00;103446.16;1040441;28;20311;-79
2022/01/23 01:10:02;;;;;;;7.20;6.38;;;;;;;3.62;100.00;103445.09;1040428;28;20308;-79
2022/01/23 01:10:46;;;;;;;6.15;5.63;;;;;;;3.61;100.00;103451.31;1040680;28;20303;-79
2022/01/23 01:12:05;;;;;;;6.53;5.88;;;;;;;3.64;100.00;103456.38;1036180;28;20305;-79
2022/01/23 01:12:45;;;;;;;7.57;5.40;;;;;;;3.70;100.00;103453.31;1035945;28;20308;-80
2022/01/23 01:13:16;;;;;;;8.65;5.32;;;;;;;3.63;100.00;103452.91;1036217;28;20331;-79
2022/01/23 01:17:10;;;;;;;4.95;4.45;;;;;;;3.69;100.00;103452.47;1031925;28;20304;-78
2022/01/23 01:30:35;;;;;;;7.43;4.75;;;;;;;3.86;100.00;103390.66;1040307;28;20315;-78
2022/01/23 01:31:48;;;;;;;10.68;5.85;;;;;;;3.82;100.00;103397.06;1044290;28;20394;-78
2022/01/23 01:32:35;;;;;;;7.60;4.43;;;;;;;3.83;100.00;103406.66;1039767;28;20311;-78
2022/01/23 01:33:35;;;;;;;11.00;4.78;;;;;;;3.82;100.00;103397.06;1040163;28;20323;-78
2022/01/23 01:34:47;;;;;;;7.25;4.30;;;;;;;3.83;100.00;103425.13;1035709;28;20313;-78
2022/01/23 01:35:32;;;;;;;4.70;4.20;;;;;;;3.84;100.00;103418.09;1033457;28;20308;-78
2022/01/23 01:36:33;;;;;;;6.70;4.47;;;;;;;3.83;100.00;103422.47;1035228;28;20308;-78
2022/01/23 01:36:56;;;;;;;6.20;4.93;;;;;;;3.86;100.00;103427.56;1033834;28;20313;-78
2022/01/23 01:37:28;;;;;;;6.85;5.00;;;;;;;3.86;100.00;103421.47;1032970;28;20645;-78
2022/01/23 01:37:59;;;;;;;10.73;4.60;;;;;;;3.84;100.00;103416.28;1036205;28;20659;-79
2022/01/23 01:38:31;;;;;;;5.88;4.95;;;;;;;3.87;100.00;103418.72;1035161;28;20319;-79
2022/01/23 01:39:06;;;;;;;5.00;3.95;;;;;;;3.87;100.00;103423.97;1036838;28;20311;-78
2022/01/23 01:39:37;;;;;;;6.25;4.72;;;;;;;3.88;100.00;103415.13;1039847;28;20307;-78
2022/01/23 01:40:09;;;;;;;11.40;4.43;;;;;;;3.88;100.00;103428.31;1037122;28;20735;-78
2022/01/23 01:40:41;;;;;;;4.95;4.55;;;;;;;3.90;100.00;103429.03;1040094;28;20308;-78
2022/01/23 01:41:14;;;;;;;5.07;4.50;;;;;;;3.91;100.00;103429.88;1040232;28;20311;-78
2022/01/23 01:41:46;;;;;;;6.55;4.30;;;;;;;3.90;100.00;103426.41;1040311;28;20311;-78
2022/01/23 01:42:18;;;;;;;4.97;4.20;;;;;;;3.92;100.00;103424.50;1039616;28;20311;-78
2022/01/23 01:42:49;;;;;;;9.80;4.90;;;;;;;3.92;100.00;103427.13;1040123;28;20315;-78
2022/01/23 01:43:21;;;;;;;6.03;5.07;;;;;;;3.87;100.00;103418.72;1039815;28;20319;-78
2022/01/23 01:43:54;;;;;;;5.75;4.78;;;;;;;3.89;100.00;103410.69;1036659;28;20308;-78
2022/01/23 01:44:25;;;;;;;7.32;4.45;;;;;;;3.89;100.00;103416.81;1040051;28;20671;-77
2022/01/23 01:44:57;;;;;;;10.25;5.10;;;;;;;3.86;100.00;103419.66;1035899;28;20320;-78
2022/01/23 01:45:30;;;;;;;5.22;4.70;;;;;;;3.85;100.00;103423.25;1036665;28;20309;-78
2022/01/23 01:46:03;;;;;;;6.68;4.32;;;;;;;3.82;100.00;103414.69;1039426;28;20307;-78
2022/01/23 01:46:35;;;;;;;8.80;5.40;;;;;;;3.85;100.00;103420.63;1037156;28;20305;-78
2022/01/23 01:47:07;;;;;;;6.85;4.75;;;;;;;3.86;100.00;103422.28;1039880;28;20353;-78
2022/01/23 01:47:47;;;;;;;7.47;4.85;;;;;;;3.82;100.00;103420.81;1036175;28;20350;-78
2022/01/23 01:48:23;;;;;;;6.03;4.57;;;;;;;3.80;100.00;103422.72;1037703;28;20316;-78
2022/01/23 01:48:55;;;;;;;5.53;4.35;;;;;;;3.78;100.00;103423.75;1040058;28;20048;-79
2022/01/23 01:49:31;;;;;;;6.43;5.20;;;;;;;3.79;100.00;103421.03;1042276;28;20318;-79
2022/01/23 01:50:04;;;;;;;5.13;4.63;;;;;;;3.78;100.00;103411.44;1043956;28;20305;-78
2022/01/23 01:50:43;;;;;;;5.13;4.63;;;;;;;3.79;100.00;103425.44;1044024;28;20319;-78
2022/01/23 01:51:17;;;;;;;4.53;4.13;;;;;;;3.76;100.00;103421.25;1040218;28;20300;-79
2022/01/23 01:51:48;;;;;;;7.00;4.75;;;;;;;3.82;100.00;103420.81;1039917;28;20384;-78
2022/01/23 01:52:20;;;;;;;6.57;5.25;;;;;;;3.81;100.00;103429.66;1040077;28;20809;-78
2022/01/23 01:52:52;;;;;;;6.78;4.95;;;;;;;3.77;100.00;103422.94;1041775;28;20315;-79
2022/01/23 01:53:23;;;;;;;6.95;4.95;;;;;;;3.73;100.00;103429.38;1043205;28;20311;-79
2022/01/23 01:54:02;;;;;;;4.97;4.47;;;;;;;3.75;100.00;103430.09;1036352;28;20794;-79
2022/01/23 01:54:34;;;;;;;6.55;4.50;;;;;;;3.86;100.00;103427.56;1039789;28;20314;-79
2022/01/23 01:55:08;;;;;;;6.97;5.22;;;;;;;3.78;100.00;103431.69;1035977;28;20304;-78
2022/01/23 01:55:50;;;;;;;5.80;4.80;;;;;;;3.77;100.00;103428.19;1037547;28;20852;-79
2022/01/23 01:56:21;;;;;;;9.63;5.25;;;;;;;3.78;100.00;103432.53;1036062;28;20311;-78
2022/01/23 01:57:04;;;;;;;6.53;4.72;;;;;;;3.73;100.00;103426.72;1033061;28;20309;-78
2022/01/23 01:57:44;;;;;;;11.60;4.82;;;;;;;3.68;100.00;103426.22;1032057;28;20376;-78
2022/01/23 02:00:11;;;;;;;4.72;4.03;;;;;;;3.68;100.00;103431.50;1035790;28;20315;-78
2022/01/23 02:00:55;;;;;;;;;;;;;;;3.71;100.00;103433.91;1042531;28;20438;-78
2022/01/23 02:08:20;;;;;;;6.60;4.20;;;;;;;3.65;100.00;103426.44;1039977;28;20331;-78
2022/01/23 02:08:38;;;;;;;4.10;3.08;;;;;;;3.69;100.00;103417.34;1044367;28;20307;-78
2022/01/23 02:10:10;;;;;;;6.38;3.42;;;;;;;3.66;100.00;103422.84;1027745;28;20310;-78
2022/01/23 02:10:47;;;;;;;3.47;3.20;;;;;;;3.66;100.00;103415.78;1043976;28;20049;-79
2022/01/23 02:11:45;;;;;;;10.27;3.70;;;;;;;3.68;100.00;103420.94;1043727;28;20785;-79
2022/01/23 02:15:40;;;;;;;5.88;3.65;;;;;;;3.71;100.00;103416.31;1044421;28;20306;-78
2022/01/23 02:17:01;;;;;;;9.75;4.15;;;;;;;3.67;100.00;103419.25;1044526;28;20303;-78
2022/01/23 02:17:55;;;;;;;4.30;3.92;;;;;;;3.66;100.00;103422.84;1044491;28;20315;-78
2022/01/23 02:23:10;;;;;;;3.85;3.50;;;;;;;3.64;100.00;103414.22;1044400;28;20048;-78
2022/01/23 02:50:49;;;;;;;5.28;3.72;;;;;;;3.74;100.00;103412.59;1030068;28;20680;-78
2022/01/23 02:53:19;;;;;;;7.55;3.85;;;;;;;3.69;100.00;103406.81;1023372;29;20307;-79
2022/01/23 02:54:25;;;;;;;;;;;;;;;3.68;100.00;103411.25;1027109;28;20310;-79
2022/01/23 02:54:59;;;;;;;6.68;3.20;;;;;;;3.62;100.00;103418.75;1040117;28;19932;-78
2022/01/23 02:55:39;;;;;;;5.72;4.03;;;;;;;3.62;100.00;103414.31;1039544;28;20312;-79
2022/01/23 02:56:20;;;;;;;4.78;3.65;;;;;;;3.61;100.00;103417.06;1039794;28;20312;-79
2022/01/23 02:56:55;;;;;;;4.40;4.00;;;;;;;3.62;100.00;103418.75;1035753;28;20321;-78
2022/01/23 02:58:10;;;;;;;4.60;4.20;;;;;;;3.60;100.00;103418.00;1035591;28;20308;-78
2022/01/23 02:58:56;;;;;;;8.05;4.28;;;;;;;3.61;100.00;103417.91;1035777;28;20046;-79
2022/01/23 02:59:32;;;;;;;8.35;4.13;;;;;;;3.61;100.00;103417.91;1039749;28;20677;-78
2022/01/23 03:00:12;;;;;;;6.28;4.35;;;;;;;3.59;100.00;103411.91;1039931;28;20312;-79
2022/01/23 03:01:34;;;;;;;5.32;4.13;;;;;;;3.61;100.00;103417.06;1039545;28;20359;-78
2022/01/23 03:03:03;;;;;;;6.22;4.80;;;;;;;3.57;100.00;103410.31;1042549;28;20322;-79
2022/01/23 03:03:40;;;;;;;9.52;4.75;;;;;;;3.55;100.00;103409.56;1040333;28;20077;-79
2022/01/23 03:04:12;;;;;;;6.15;4.95;;;;;;;3.56;100.00;103419.16;1035674;28;20316;-78
2022/01/23 03:04:51;;;;;;;6.43;4.93;;;;;;;3.55;100.00;103412.19;1035576;28;20304;-78
2022/01/23 03:08:30;;;;;;;8.32;5.30;;;;;;;3.55;100.00;103413.03;1031461;28;20312;-79
2022/01/23 03:09:55;;;;;;;7.30;4.55;;;;;;;3.58;100.00;103427.81;1039397;28;20304;-79
2022/01/23 03:10:44;;;;;;;5.30;4.80;;;;;;;3.59;100.00;103429.50;1042783;28;20311;-79
2022/01/23 03:11:42;;;;;;;6.57;3.97;;;;;;;3.60;100.00;103429.41;1039967;28;20304;-79
2022/01/23 03:13:23;;;;;;;6.07;4.50;;;;;;;3.60;100.00;103425.91;1039502;28;20686;-79
2022/01/23 03:13:57;;;;;;;4.78;4.28;;;;;;;3.61;100.00;103435.50;1039646;28;20312;-78
2022/01/23 03:15:12;;;;;;;6.07;5.43;;;;;;;3.58;100.00;103433.09;1035575;28;20312;-79
2022/01/23 03:28:21;;;;;;;6.13;5.50;;;;;;;3.61;100.00;103430.25;1037551;28;20057;-79
2022/01/23 03:30:33;;;;;;;5.47;4.95;;;;;;;3.68;100.00;103428.84;1040290;28;20801;-79
2022/01/23 03:31:08;;;;;;;8.90;4.28;;;;;;;3.69;100.00;103425.25;1035467;28;20052;-78
2022/01/23 03:31:44;;;;;;;7.00;4.00;;;;;;;3.64;100.00;103425.59;1031788;28;20344;-79
2022/01/23 03:32:56;;;;;;;10.23;5.25;;;;;;;3.63;100.00;103423.06;1034481;28;20419;-78
2022/01/23 03:33:28;;;;;;;5.70;5.07;;;;;;;3.63;100.00;103423.91;1038123;28;20064;-79
2022/01/23 03:34:00;;;;;;;6.63;6.03;;;;;;;3.60;100.00;103421.50;1039706;28;20322;-78
2022/01/23 03:34:31;;;;;;;6.70;5.65;;;;;;;3.62;100.00;103424.03;1037126;28;20789;-78
2022/01/23 03:35:04;;;;;;;5.82;5.13;;;;;;;3.63;100.00;103428.34;1035722;28;20674;-78
2022/01/23 03:35:36;;;;;;;8.45;6.13;;;;;;;3.67;100.00;103422.75;1031274;28;20317;-78
2022/01/23 03:36:08;;;;;;;6.85;5.65;;;;;;;3.61;100.00;103427.59;1032203;28;20861;-78
2022/01/23 03:36:39;;;;;;;8.32;6.60;;;;;;;3.65;100.00;103421.16;1036163;28;20651;-78
2022/01/23 03:37:11;;;;;;;9.23;6.45;;;;;;;3.64;100.00;103417.69;1036243;28;20797;-78
2022/01/23 03:37:43;;;;;;;10.75;6.53;;;;;;;3.65;100.00;103422.00;1039855;28;20382;-79
2022/01/23 03:38:14;;;;;;;8.00;7.32;;;;;;;3.58;100.00;103427.81;1039473;28;20793;-79
2022/01/23 03:38:46;;;;;;;10.85;6.65;;;;;;;3.61;100.00;103424.97;1039634;28;20304;-78
2022/01/23 03:39:18;;;;;;;9.32;6.68;;;;;;;3.58;100.00;103422.56;1040130;28;20437;-78
2022/01/23 03:39:50;;;;;;;13.68;5.97;;;;;;;3.61;100.00;103422.34;1043661;28;20321;-78
2022/01/23 03:40:21;;;;;;;7.15;6.45;;;;;;;3.61;100.00;103422.34;1039799;28;20316;-79
2022/01/23 03:40:53;;;;;;;6.45;5.90;;;;;;;3.62;100.00;103424.03;1039458;28;20320;-78
2022/01/23 03:41:25;;;;;;;7.30;6.50;;;;;;;3.62;100.00;103424.03;1038711;28;20304;-79
2022/01/23 03:41:56;;;;;;;7.35;6.10;;;;;;;3.56;100.00;103419.16;1036213;28;20308;-78
2022/01/23 03:42:29;;;;;;;5.88;5.38;;;;;;;3.55;100.00;103428.00;1039594;28;20682;-79
2022/01/23 03:43:09;;;;;;;7.13;6.15;;;;;;;3.55;100.00;103428.00;1036156;28;20308;-79
2022/01/23 03:43:41;;;;;;;8.75;6.10;;;;;;;3.60;100.00;103423.28;1039362;28;20311;-78
2022/01/23 03:44:15;;;;;;;6.25;5.75;;;;;;;3.68;100.00;103428.84;1039722;28;20103;-78
2022/01/23 03:46:33;;;;;;;8.07;5.82;;;;;;;3.64;100.00;103430.03;1029862;28;20405;-78
2022/01/23 03:49:30;;;;;;;6.10;5.50;;;;;;;3.61;100.00;103417.06;1035770;28;20311;-79
2022/01/23 03:49:31;;;;;;;8.68;4.65;;;;;;;3.62;100.00;103419.59;1039718;28;20311;-79
2022/01/23 03:50:06;;;;;;;8.25;5.25;;;;;;;3.68;100.00;103424.41;1035560;28;20320;-79
2022/01/23 03:50:42;;;;;;;7.95;5.72;;;;;;;3.79;100.00;103423.66;1031642;28;20342;-79
2022/01/23 03:51:16;;;;;;;6.72;5.93;;;;;;;3.88;100.00;103430.94;1026998;28;20784;-78
2022/01/23 03:51:47;;;;;;;6.90;6.13;;;;;;;3.91;100.00;103428.06;1022862;29;20311;-79
2022/01/23 03:52:19;;;;;;;5.88;5.28;;;;;;;3.93;100.00;103427.97;1027504;28;20328;-78
2022/01/23 03:52:50;;;;;;;10.88;6.05;;;;;;;3.93;100.00;103433.25;1033125;28;20316;-78
2022/01/23 03:53:21;;;;;;;6.78;5.63;;;;;;;3.91;100.00;103424.59;1039224;28;20304;-78
2022/01/23 03:53:53;;;;;;;6.45;5.57;;;;;;;3.87;100.00;103429.25;1039412;28;20861;-78
2022/01/23 03:54:26;;;;;;;8.05;6.35;;;;;;;3.81;100.00;103428.81;1039590;28;20304;-78
2022/01/23 03:54:58;;;;;;;8.73;6.32;;;;;;;3.80;100.00;103433.25;1035955;28;20321;-79
2022/01/23 03:55:29;;;;;;;12.30;6.30;;;;;;;3.79;100.00;103431.56;1039674;28;20304;-79
2022/01/23 03:56:01;;;;;;;9.90;6.32;;;;;;;3.72;100.00;103427.69;1039362;28;20308;-78
2022/01/23 03:56:32;;;;;;;9.05;6.10;;;;;;;3.67;100.00;103433.28;1035588;28;20339;-78
2022/01/23 03:57:05;;;;;;;9.90;7.38;;;;;;;3.63;100.00;103436.25;1035745;28;20308;-78
2022/01/23 03:57:37;;;;;;;9.27;6.80;;;;;;;3.55;100.00;103436.75;1036064;28;20308;-78
2022/01/23 03:58:08;;;;;;;7.22;6.43;;;;;;;3.57;100.00;103431.41;1035638;28;20833;-78
2022/01/23 03:58:41;;;;;;;7.70;6.68;;;;;;;3.59;100.00;103435.63;1035506;28;20314;-79
2022/01/23 03:59:12;;;;;;;9.57;6.95;;;;;;;3.57;100.00;103434.03;1035627;28;20668;-78
2022/01/23 03:59:43;;;;;;;7.75;6.95;;;;;;;3.56;100.00;103433.19;1035819;28;20699;-78
2022/01/23 04:00:17;;;;;;;7.80;7.00;;;;;;;3.57;100.00;103434.03;1039706;28;20312;-78
2022/01/23 04:00:48;;;;;;;7.57;6.68;;;;;;;3.56;100.00;103434.97;1039706;28;20331;-79
2022/01/23 04:01:20;;;;;;;8.65;7.22;;;;;;;3.54;100.00;103436.84;1039719;28;20813;-79
2022/01/23 04:01:52;;;;;;;6.95;6.20;;;;;;;3.56;100.00;103446.38;1039506;28;20350;-78
2022/01/23 04:02:24;;;;;;;6.90;6.30;;;;;;;3.63;100.00;103433.59;1035103;28;20319;-78
2022/01/23 04:02:56;;;;;;;9.75;6.60;;;;;;;3.62;100.00;103438.03;1035703;28;20304;-78
2022/01/23 04:03:28;;;;;;;11.55;7.60;;;;;;;3.65;100.00;103434.34;1031376;28;20305;-79
2022/01/23 04:04:03;;;;;;;10.15;7.70;;;;;;;3.64;100.00;103428.22;1024629;28;20307;-79
2022/01/23 04:04:40;;;;;;;8.52;7.57;;;;;;;3.63;100.00;103438.88;1031486;28;20309;-78
2022/01/23 04:05:11;;;;;;;9.20;7.15;;;;;;;3.67;100.00;103438.56;1033039;28;20392;-79
2022/01/23 04:05:43;;;;;;;9.32;7.28;;;;;;;3.70;100.00;103438.34;1037493;28;20308;-78
2022/01/23 04:06:14;;;;;;;9.35;7.55;;;;;;;3.66;100.00;103436.03;1039374;28;20312;-78
2022/01/23 04:06:46;;;;;;;8.25;7.43;;;;;;;3.66;100.00;103444.78;1035616;28;20779;-78
2022/01/23 04:07:22;;;;;;;10.10;8.07;;;;;;;3.65;100.00;103442.25;1035564;28;20845;-79
2022/01/23 04:07:54;;;;;;;8.52;7.72;;;;;;;3.64;100.00;103443.19;1036760;28;20656;-78
2022/01/23 04:08:30;;;;;;;11.10;7.65;;;;;;;3.64;100.00;103438.78;1039772;28;20303;-79
2022/01/23 04:09:02;;;;;;;10.45;8.02;;;;;;;3.66;100.00;103451.84;1035464;28;20305;-78
2022/01/23 04:09:34;;;;;;;8.75;7.95;;;;;;;3.63;100.00;103446.78;1033101;28;20308;-78
2022/01/23 04:10:07;;;;;;;10.65;8.35;;;;;;;3.62;100.00;103448.56;1031441;28;20336;-79
2022/01/23 04:10:39;;;;;;;8.95;8.05;;;;;;;3.64;100.00;103445.84;1032423;28;20810;-78
2022/01/23 04:11:11;;;;;;;9.15;8.18;;;;;;;3.63;100.00;103452.06;1036389;28;20311;-79
2022/01/23 04:11:43;;;;;;;11.10;8.25;;;;;;;3.61;100.00;103451.31;1039770;28;20331;-78
2022/01/23 04:12:38;;;;;;;9.70;8.23;;;;;;;3.57;100.00;103452.50;1035413;28;20309;-78
2022/01/23 04:13:16;;;;;;;8.18;7.30;;;;;;;3.55;100.00;103447.28;1039020;28;20307;-79
2022/01/23 04:13:50;;;;;;;8.13;7.38;;;;;;;3.64;100.00;103451.94;1039567;28;20365;-78
2022/01/23 04:14:24;;;;;;;8.07;6.78;;;;;;;3.62;100.00;103455.63;1040595;28;20136;-79
2022/01/23 04:15:10;;;;;;;7.85;7.05;;;;;;;3.59;100.00;103455.84;1040623;28;20307;-78
2022/01/23 04:16:39;;;;;;;8.32;7.47;;;;;;;3.59;100.00;103450.59;1040237;28;20308;-78
2022/01/23 04:18:46;;;;;;;7.00;6.15;;;;;;;3.64;100.00;103451.09;1040715;28;20311;-78
2022/01/23 04:19:11;;;;;;;8.68;5.80;;;;;;;3.60;100.00;103457.53;1040516;28;20304;-79
2022/01/23 04:20:44;;;;;;;9.70;7.40;;;;;;;3.58;100.00;103462.91;1024046;29;20077;-78
2022/01/23 04:45:11;;;;;;;10.65;6.93;;;;;;;3.68;100.00;103448.16;1027614;28;20306;-78
2022/01/23 04:45:17;;;;;;;15.80;9.45;;;;;;;3.69;100.00;103454.25;1040595;28;20323;-78
2022/01/23 04:46:17;;;;;;;13.10;9.10;;;;;;;3.60;100.00;103441.72;1036109;28;20305;-78
2022/01/23 04:59:34;;;;;;;17.08;12.88;;;;;;;3.67;100.00;103448.25;1040434;28;20312;-78
2022/01/23 05:00:06;;;;;;;16.77;12.40;;;;;;;3.68;100.00;103445.50;1040262;28;20308;-78
2022/01/23 05:00:49;;;;;;;19.48;12.75;;;;;;;3.71;100.00;103452.34;1040758;28;20300;-79
2022/01/23 05:02:14;;;;;;;17.58;12.05;;;;;;;3.73;100.00;103447.81;1040327;28;20790;-78
2022/01/23 05:04:13;;;;;;;14.30;12.20;;;;;;;3.80;100.00;103454.34;1037737;28;20387;-78
2022/01/23 05:04:46;;;;;;;15.95;12.75;;;;;;;3.79;100.00;103447.38;1040346;28;20326;-78